sensor_id;sensor_type;location;lat;lon;timestamp;P1;durP1;ratioP1;P2;durP2;ratioP2
55728;SDS011;41633;39.720;2.910;2023-03-03T00:00:52;18.67;;;9.93;;
55728;SDS011;41633;39.720;2.910;2023-03-03T00:03:20;14.18;;;9.52;;
55728;SDS011;41633;39.720;2.910;2023-03-03T00:05:46;15.15;;;9.32;;
55728;SDS011;41633;39.720;2.910;2023-03-03T00:08:13;14.77;;;9.27;;
55728;SDS011;41633;39.720;2.910;2023-03-03T00:10:39;14.90;;;9.02;;
55728;SDS011;41633;39.720;2.910;2023-03-03T00:13:15;15.90;;;10.23;;
55728;SDS011;41633;39.720;2.910;2023-03-03T00:15:42;14.15;;;8.50;;
55728;SDS011;41633;39.720;2.910;2023-03-03T00:18:20;15.50;;;8.73;;
55728;SDS011;41633;39.720;2.910;2023-03-03T00:20:47;15.38;;;8.57;;
55728;SDS011;41633;39.720;2.910;2023-03-03T00:23:26;15.63;;;9.80;;
55728;SDS011;41633;39.720;2.910;2023-03-03T00:25:54;14.02;;;9.38;;
55728;SDS011;41633;39.720;2.910;2023-03-03T00:31:10;14.07;;;8.73;;
55728;SDS011;41633;39.720;2.910;2023-03-03T00:33:41;13.45;;;8.63;;
55728;SDS011;41633;39.720;2.910;2023-03-03T00:36:20;14.93;;;9.95;;
55728;SDS011;41633;39.720;2.910;2023-03-03T00:38:47;17.00;;;10.23;;
55728;SDS011;41633;39.720;2.910;2023-03-03T00:41:24;15.68;;;9.13;;
55728;SDS011;41633;39.720;2.910;2023-03-03T00:43:50;15.48;;;9.98;;
55728;SDS011;41633;39.720;2.910;2023-03-03T00:46:18;17.02;;;10.27;;
55728;SDS011;41633;39.720;2.910;2023-03-03T00:48:45;17.70;;;10.05;;
55728;SDS011;41633;39.720;2.910;2023-03-03T00:51:24;15.57;;;9.77;;
55728;SDS011;41633;39.720;2.910;2023-03-03T00:53:51;17.17;;;10.27;;
55728;SDS011;41633;39.720;2.910;2023-03-03T00:56:17;19.00;;;10.52;;
55728;SDS011;41633;39.720;2.910;2023-03-03T00:58:44;18.13;;;11.77;;
55728;SDS011;41633;39.720;2.910;2023-03-03T01:01:12;15.27;;;10.40;;
55728;SDS011;41633;39.720;2.910;2023-03-03T01:03:39;17.20;;;11.48;;
55728;SDS011;41633;39.720;2.910;2023-03-03T01:06:05;16.80;;;11.07;;
55728;SDS011;41633;39.720;2.910;2023-03-03T01:08:31;17.27;;;11.55;;
55728;SDS011;41633;39.720;2.910;2023-03-03T01:10:58;17.88;;;10.40;;
55728;SDS011;41633;39.720;2.910;2023-03-03T01:13:26;17.20;;;11.85;;
55728;SDS011;41633;39.720;2.910;2023-03-03T01:15:53;17.23;;;10.77;;
55728;SDS011;41633;39.720;2.910;2023-03-03T01:18:19;15.68;;;10.82;;
55728;SDS011;41633;39.720;2.910;2023-03-03T01:20:45;15.07;;;9.60;;
55728;SDS011;41633;39.720;2.910;2023-03-03T01:23:11;16.88;;;10.15;;
55728;SDS011;41633;39.720;2.910;2023-03-03T01:25:37;17.65;;;9.80;;
55728;SDS011;41633;39.720;2.910;2023-03-03T01:28:04;15.65;;;9.75;;
55728;SDS011;41633;39.720;2.910;2023-03-03T01:32:56;16.08;;;9.35;;
55728;SDS011;41633;39.720;2.910;2023-03-03T01:35:23;17.75;;;10.73;;
55728;SDS011;41633;39.720;2.910;2023-03-03T01:37:49;18.10;;;12.05;;
55728;SDS011;41633;39.720;2.910;2023-03-03T01:40:23;16.05;;;11.13;;
55728;SDS011;41633;39.720;2.910;2023-03-03T01:42:49;15.27;;;10.80;;
55728;SDS011;41633;39.720;2.910;2023-03-03T01:45:23;15.02;;;10.65;;
55728;SDS011;41633;39.720;2.910;2023-03-03T01:50:53;15.88;;;10.02;;
55728;SDS011;41633;39.720;2.910;2023-03-03T01:53:16;16.02;;;9.73;;
55728;SDS011;41633;39.720;2.910;2023-03-03T01:55:43;15.10;;;9.65;;
55728;SDS011;41633;39.720;2.910;2023-03-03T01:58:15;15.32;;;8.90;;
55728;SDS011;41633;39.720;2.910;2023-03-03T02:00:43;15.68;;;8.85;;
55728;SDS011;41633;39.720;2.910;2023-03-03T02:03:11;16.95;;;9.98;;
55728;SDS011;41633;39.720;2.910;2023-03-03T02:05:37;16.00;;;9.77;;
55728;SDS011;41633;39.720;2.910;2023-03-03T02:08:05;16.00;;;9.27;;
55728;SDS011;41633;39.720;2.910;2023-03-03T02:10:32;17.15;;;9.75;;
55728;SDS011;41633;39.720;2.910;2023-03-03T02:12:59;13.90;;;9.23;;
55728;SDS011;41633;39.720;2.910;2023-03-03T02:15:26;17.40;;;10.15;;
55728;SDS011;41633;39.720;2.910;2023-03-03T02:17:53;15.48;;;9.38;;
55728;SDS011;41633;39.720;2.910;2023-03-03T02:20:27;14.00;;;9.20;;
55728;SDS011;41633;39.720;2.910;2023-03-03T02:22:59;14.40;;;9.32;;
55728;SDS011;41633;39.720;2.910;2023-03-03T02:25:33;16.55;;;9.05;;
55728;SDS011;41633;39.720;2.910;2023-03-03T02:28:01;14.57;;;8.95;;
55728;SDS011;41633;39.720;2.910;2023-03-03T02:30:28;15.00;;;10.02;;
55728;SDS011;41633;39.720;2.910;2023-03-03T02:32:54;13.70;;;8.68;;
55728;SDS011;41633;39.720;2.910;2023-03-03T02:37:52;15.82;;;10.30;;
55728;SDS011;41633;39.720;2.910;2023-03-03T02:40:19;15.85;;;9.27;;
55728;SDS011;41633;39.720;2.910;2023-03-03T02:42:47;15.82;;;9.00;;
55728;SDS011;41633;39.720;2.910;2023-03-03T02:45:13;14.85;;;9.10;;
55728;SDS011;41633;39.720;2.910;2023-03-03T02:47:39;17.30;;;10.05;;
55728;SDS011;41633;39.720;2.910;2023-03-03T02:50:06;16.20;;;10.73;;
55728;SDS011;41633;39.720;2.910;2023-03-03T02:52:32;17.65;;;10.07;;
55728;SDS011;41633;39.720;2.910;2023-03-03T02:54:58;15.57;;;10.40;;
55728;SDS011;41633;39.720;2.910;2023-03-03T02:57:24;16.50;;;10.07;;
55728;SDS011;41633;39.720;2.910;2023-03-03T02:59:50;15.13;;;9.70;;
55728;SDS011;41633;39.720;2.910;2023-03-03T03:02:16;13.88;;;8.00;;
55728;SDS011;41633;39.720;2.910;2023-03-03T03:07:09;15.02;;;9.48;;
55728;SDS011;41633;39.720;2.910;2023-03-03T03:09:35;15.65;;;9.27;;
55728;SDS011;41633;39.720;2.910;2023-03-03T03:12:02;18.38;;;10.43;;
55728;SDS011;41633;39.720;2.910;2023-03-03T03:14:29;16.50;;;9.70;;
55728;SDS011;41633;39.720;2.910;2023-03-03T03:16:55;14.55;;;9.90;;
55728;SDS011;41633;39.720;2.910;2023-03-03T03:19:21;16.55;;;9.43;;
55728;SDS011;41633;39.720;2.910;2023-03-03T03:21:47;13.63;;;9.32;;
55728;SDS011;41633;39.720;2.910;2023-03-03T03:24:14;15.30;;;9.55;;
55728;SDS011;41633;39.720;2.910;2023-03-03T03:26:40;14.85;;;9.38;;
55728;SDS011;41633;39.720;2.910;2023-03-03T03:29:06;15.15;;;9.13;;
55728;SDS011;41633;39.720;2.910;2023-03-03T03:31:32;12.98;;;8.02;;
55728;SDS011;41633;39.720;2.910;2023-03-03T03:33:58;15.40;;;7.45;;
55728;SDS011;41633;39.720;2.910;2023-03-03T03:36:24;17.00;;;9.00;;
55728;SDS011;41633;39.720;2.910;2023-03-03T03:38:52;15.23;;;8.32;;
55728;SDS011;41633;39.720;2.910;2023-03-03T03:41:18;17.35;;;9.60;;
55728;SDS011;41633;39.720;2.910;2023-03-03T03:43:44;14.20;;;8.82;;
55728;SDS011;41633;39.720;2.910;2023-03-03T03:46:11;13.40;;;7.75;;
55728;SDS011;41633;39.720;2.910;2023-03-03T03:48:37;12.82;;;7.90;;
55728;SDS011;41633;39.720;2.910;2023-03-03T03:51:03;15.05;;;9.55;;
55728;SDS011;41633;39.720;2.910;2023-03-03T03:53:29;14.38;;;8.82;;
55728;SDS011;41633;39.720;2.910;2023-03-03T03:55:56;13.45;;;9.55;;
55728;SDS011;41633;39.720;2.910;2023-03-03T03:58:22;14.77;;;8.23;;
55728;SDS011;41633;39.720;2.910;2023-03-03T04:00:48;14.52;;;8.95;;
55728;SDS011;41633;39.720;2.910;2023-03-03T04:03:14;15.98;;;9.18;;
55728;SDS011;41633;39.720;2.910;2023-03-03T04:05:40;12.68;;;8.48;;
55728;SDS011;41633;39.720;2.910;2023-03-03T04:08:07;13.75;;;8.68;;
55728;SDS011;41633;39.720;2.910;2023-03-03T04:10:33;13.90;;;8.70;;
55728;SDS011;41633;39.720;2.910;2023-03-03T04:12:59;13.88;;;8.73;;
55728;SDS011;41633;39.720;2.910;2023-03-03T04:15:25;12.82;;;7.90;;
55728;SDS011;41633;39.720;2.910;2023-03-03T04:17:52;14.07;;;8.68;;
55728;SDS011;41633;39.720;2.910;2023-03-03T04:20:18;13.65;;;8.90;;
55728;SDS011;41633;39.720;2.910;2023-03-03T04:22:44;12.82;;;7.78;;
55728;SDS011;41633;39.720;2.910;2023-03-03T04:25:11;16.33;;;8.68;;
55728;SDS011;41633;39.720;2.910;2023-03-03T04:27:39;14.98;;;8.90;;
55728;SDS011;41633;39.720;2.910;2023-03-03T04:30:05;14.80;;;8.38;;
55728;SDS011;41633;39.720;2.910;2023-03-03T04:32:32;13.05;;;7.85;;
55728;SDS011;41633;39.720;2.910;2023-03-03T04:34:58;16.55;;;8.75;;
55728;SDS011;41633;39.720;2.910;2023-03-03T04:37:25;13.02;;;8.23;;
55728;SDS011;41633;39.720;2.910;2023-03-03T04:39:51;15.07;;;9.35;;
55728;SDS011;41633;39.720;2.910;2023-03-03T04:42:17;16.58;;;9.63;;
55728;SDS011;41633;39.720;2.910;2023-03-03T04:44:43;14.27;;;8.57;;
55728;SDS011;41633;39.720;2.910;2023-03-03T04:47:09;14.70;;;8.65;;
55728;SDS011;41633;39.720;2.910;2023-03-03T04:49:35;18.88;;;9.25;;
55728;SDS011;41633;39.720;2.910;2023-03-03T04:54:28;15.48;;;9.20;;
55728;SDS011;41633;39.720;2.910;2023-03-03T04:56:54;20.10;;;10.23;;
55728;SDS011;41633;39.720;2.910;2023-03-03T04:59:21;15.20;;;10.65;;
55728;SDS011;41633;39.720;2.910;2023-03-03T05:01:47;16.58;;;9.63;;
55728;SDS011;41633;39.720;2.910;2023-03-03T05:04:15;14.77;;;9.18;;
55728;SDS011;41633;39.720;2.910;2023-03-03T05:06:41;16.42;;;9.30;;
55728;SDS011;41633;39.720;2.910;2023-03-03T05:09:07;15.05;;;10.80;;
55728;SDS011;41633;39.720;2.910;2023-03-03T05:11:33;17.08;;;10.50;;
55728;SDS011;41633;39.720;2.910;2023-03-03T05:16:27;14.00;;;8.95;;
55728;SDS011;41633;39.720;2.910;2023-03-03T05:18:56;14.52;;;9.80;;
55728;SDS011;41633;39.720;2.910;2023-03-03T05:21:23;16.05;;;8.95;;
55728;SDS011;41633;39.720;2.910;2023-03-03T05:23:49;14.13;;;8.50;;
55728;SDS011;41633;39.720;2.910;2023-03-03T05:26:16;12.80;;;8.82;;
55728;SDS011;41633;39.720;2.910;2023-03-03T05:28:42;13.57;;;9.05;;
55728;SDS011;41633;39.720;2.910;2023-03-03T05:31:09;15.20;;;9.75;;
55728;SDS011;41633;39.720;2.910;2023-03-03T05:33:35;13.50;;;8.88;;
55728;SDS011;41633;39.720;2.910;2023-03-03T05:36:02;13.60;;;9.43;;
55728;SDS011;41633;39.720;2.910;2023-03-03T05:38:28;14.85;;;8.77;;
55728;SDS011;41633;39.720;2.910;2023-03-03T05:40:54;18.02;;;10.80;;
55728;SDS011;41633;39.720;2.910;2023-03-03T05:43:20;15.38;;;10.07;;
55728;SDS011;41633;39.720;2.910;2023-03-03T05:45:47;16.00;;;9.88;;
55728;SDS011;41633;39.720;2.910;2023-03-03T05:48:13;16.33;;;9.90;;
55728;SDS011;41633;39.720;2.910;2023-03-03T05:50:39;15.50;;;9.90;;
55728;SDS011;41633;39.720;2.910;2023-03-03T05:53:05;16.17;;;9.23;;
55728;SDS011;41633;39.720;2.910;2023-03-03T05:55:31;15.13;;;9.52;;
55728;SDS011;41633;39.720;2.910;2023-03-03T05:57:57;14.68;;;9.98;;
55728;SDS011;41633;39.720;2.910;2023-03-03T06:00:23;17.30;;;10.30;;
55728;SDS011;41633;39.720;2.910;2023-03-03T06:02:49;17.60;;;11.15;;
55728;SDS011;41633;39.720;2.910;2023-03-03T06:05:16;18.27;;;11.60;;
55728;SDS011;41633;39.720;2.910;2023-03-03T06:07:42;19.88;;;12.20;;
55728;SDS011;41633;39.720;2.910;2023-03-03T06:10:09;19.40;;;13.88;;
55728;SDS011;41633;39.720;2.910;2023-03-03T06:12:35;21.52;;;14.93;;
55728;SDS011;41633;39.720;2.910;2023-03-03T06:15:03;20.60;;;13.90;;
55728;SDS011;41633;39.720;2.910;2023-03-03T06:19:55;21.65;;;14.05;;
55728;SDS011;41633;39.720;2.910;2023-03-03T06:22:21;20.40;;;14.20;;
55728;SDS011;41633;39.720;2.910;2023-03-03T06:24:47;23.70;;;15.18;;
55728;SDS011;41633;39.720;2.910;2023-03-03T06:27:14;23.08;;;13.90;;
55728;SDS011;41633;39.720;2.910;2023-03-03T06:29:40;21.85;;;13.40;;
55728;SDS011;41633;39.720;2.910;2023-03-03T06:32:06;20.60;;;12.77;;
55728;SDS011;41633;39.720;2.910;2023-03-03T06:34:32;15.98;;;10.10;;
55728;SDS011;41633;39.720;2.910;2023-03-03T06:36:58;16.15;;;10.27;;
55728;SDS011;41633;39.720;2.910;2023-03-03T06:39:24;16.13;;;10.15;;
55728;SDS011;41633;39.720;2.910;2023-03-03T06:41:51;14.57;;;9.30;;
55728;SDS011;41633;39.720;2.910;2023-03-03T06:44:17;20.88;;;15.38;;
55728;SDS011;41633;39.720;2.910;2023-03-03T06:46:43;19.38;;;13.60;;
55728;SDS011;41633;39.720;2.910;2023-03-03T06:49:09;18.30;;;11.43;;
55728;SDS011;41633;39.720;2.910;2023-03-03T06:51:36;20.13;;;12.80;;
55728;SDS011;41633;39.720;2.910;2023-03-03T06:54:20;25.92;;;18.58;;
55728;SDS011;41633;39.720;2.910;2023-03-03T06:56:57;24.75;;;16.92;;
55728;SDS011;41633;39.720;2.910;2023-03-03T06:59:23;40.78;;;28.58;;
55728;SDS011;41633;39.720;2.910;2023-03-03T07:01:49;38.92;;;26.80;;
55728;SDS011;41633;39.720;2.910;2023-03-03T07:06:42;39.40;;;28.38;;
55728;SDS011;41633;39.720;2.910;2023-03-03T07:09:12;37.65;;;27.38;;
55728;SDS011;41633;39.720;2.910;2023-03-03T07:11:40;33.45;;;24.35;;
55728;SDS011;41633;39.720;2.910;2023-03-03T07:14:09;24.60;;;18.20;;
55728;SDS011;41633;39.720;2.910;2023-03-03T07:16:38;23.67;;;15.82;;
55728;SDS011;41633;39.720;2.910;2023-03-03T07:19:08;24.00;;;14.88;;
55728;SDS011;41633;39.720;2.910;2023-03-03T07:21:39;21.77;;;12.73;;
55728;SDS011;41633;39.720;2.910;2023-03-03T07:24:17;17.85;;;11.48;;
55728;SDS011;41633;39.720;2.910;2023-03-03T07:26:44;18.60;;;10.90;;
55728;SDS011;41633;39.720;2.910;2023-03-03T07:29:24;16.77;;;10.18;;
55728;SDS011;41633;39.720;2.910;2023-03-03T07:31:51;18.77;;;11.77;;
55728;SDS011;41633;39.720;2.910;2023-03-03T07:34:19;17.95;;;10.35;;
55728;SDS011;41633;39.720;2.910;2023-03-03T07:36:46;17.13;;;11.10;;
55728;SDS011;41633;39.720;2.910;2023-03-03T07:41:42;16.38;;;10.95;;
55728;SDS011;41633;39.720;2.910;2023-03-03T07:44:18;19.80;;;11.98;;
55728;SDS011;41633;39.720;2.910;2023-03-03T07:46:46;14.50;;;9.70;;
55728;SDS011;41633;39.720;2.910;2023-03-03T07:51:57;15.98;;;9.57;;
55728;SDS011;41633;39.720;2.910;2023-03-03T07:56:54;16.30;;;10.27;;
55728;SDS011;41633;39.720;2.910;2023-03-03T07:59:22;17.13;;;10.70;;
55728;SDS011;41633;39.720;2.910;2023-03-03T08:01:52;14.18;;;9.90;;
55728;SDS011;41633;39.720;2.910;2023-03-03T08:06:50;14.45;;;9.57;;
55728;SDS011;41633;39.720;2.910;2023-03-03T08:14:12;13.98;;;8.48;;
55728;SDS011;41633;39.720;2.910;2023-03-03T08:16:40;21.80;;;9.88;;
55728;SDS011;41633;39.720;2.910;2023-03-03T08:19:08;17.60;;;9.43;;
55728;SDS011;41633;39.720;2.910;2023-03-03T08:21:35;13.15;;;8.27;;
55728;SDS011;41633;39.720;2.910;2023-03-03T08:24:02;14.50;;;7.97;;
55728;SDS011;41633;39.720;2.910;2023-03-03T08:29:24;16.48;;;9.38;;
55728;SDS011;41633;39.720;2.910;2023-03-03T08:34:34;15.70;;;9.20;;
55728;SDS011;41633;39.720;2.910;2023-03-03T08:37:01;19.40;;;11.88;;
55728;SDS011;41633;39.720;2.910;2023-03-03T08:39:27;24.17;;;11.10;;
55728;SDS011;41633;39.720;2.910;2023-03-03T08:41:53;20.23;;;10.65;;
55728;SDS011;41633;39.720;2.910;2023-03-03T08:44:19;17.92;;;10.57;;
55728;SDS011;41633;39.720;2.910;2023-03-03T08:46:45;23.63;;;12.80;;
55728;SDS011;41633;39.720;2.910;2023-03-03T08:49:11;17.90;;;11.85;;
55728;SDS011;41633;39.720;2.910;2023-03-03T08:51:37;25.52;;;12.32;;
55728;SDS011;41633;39.720;2.910;2023-03-03T08:56:30;19.17;;;12.38;;
55728;SDS011;41633;39.720;2.910;2023-03-03T08:58:56;19.25;;;10.88;;
55728;SDS011;41633;39.720;2.910;2023-03-03T09:01:22;22.15;;;13.55;;
55728;SDS011;41633;39.720;2.910;2023-03-03T09:03:48;20.67;;;12.57;;
55728;SDS011;41633;39.720;2.910;2023-03-03T09:06:14;24.05;;;13.95;;
55728;SDS011;41633;39.720;2.910;2023-03-03T09:08:41;29.98;;;18.02;;
55728;SDS011;41633;39.720;2.910;2023-03-03T09:11:13;32.80;;;20.48;;
55728;SDS011;41633;39.720;2.910;2023-03-03T09:13:39;54.35;;;36.28;;
55728;SDS011;41633;39.720;2.910;2023-03-03T09:16:09;55.78;;;37.03;;
55728;SDS011;41633;39.720;2.910;2023-03-03T09:18:36;62.05;;;39.65;;
55728;SDS011;41633;39.720;2.910;2023-03-03T09:23:50;47.53;;;31.38;;
55728;SDS011;41633;39.720;2.910;2023-03-03T09:31:38;30.13;;;19.83;;
55728;SDS011;41633;39.720;2.910;2023-03-03T09:34:20;27.92;;;16.63;;
55728;SDS011;41633;39.720;2.910;2023-03-03T09:36:47;24.48;;;16.40;;
55728;SDS011;41633;39.720;2.910;2023-03-03T09:39:21;21.23;;;13.55;;
55728;SDS011;41633;39.720;2.910;2023-03-03T09:57:09;34.28;;;20.77;;
55728;SDS011;41633;39.720;2.910;2023-03-03T09:59:41;29.83;;;19.30;;
55728;SDS011;41633;39.720;2.910;2023-03-03T10:03:14;36.95;;;22.73;;
55728;SDS011;41633;39.720;2.910;2023-03-03T10:10:17;48.25;;;29.67;;
55728;SDS011;41633;39.720;2.910;2023-03-03T10:15:45;40.05;;;25.75;;
55728;SDS011;41633;39.720;2.910;2023-03-03T10:18:21;39.60;;;25.48;;
55728;SDS011;41633;39.720;2.910;2023-03-03T10:26:03;40.30;;;24.85;;
55728;SDS011;41633;39.720;2.910;2023-03-03T10:31:21;34.13;;;21.73;;
55728;SDS011;41633;39.720;2.910;2023-03-03T10:39:16;29.48;;;19.48;;
55728;SDS011;41633;39.720;2.910;2023-03-03T10:52:00;23.80;;;14.57;;
55728;SDS011;41633;39.720;2.910;2023-03-03T11:06:51;18.92;;;12.57;;
55728;SDS011;41633;39.720;2.910;2023-03-03T11:11:58;17.02;;;10.57;;
55728;SDS011;41633;39.720;2.910;2023-03-03T11:14:29;19.75;;;14.63;;
55728;SDS011;41633;39.720;2.910;2023-03-03T11:17:18;23.13;;;17.02;;
55728;SDS011;41633;39.720;2.910;2023-03-03T11:27:29;18.38;;;11.55;;
55728;SDS011;41633;39.720;2.910;2023-03-03T11:34:54;14.45;;;8.65;;
55728;SDS011;41633;39.720;2.910;2023-03-03T11:37:23;12.90;;;8.10;;
55728;SDS011;41633;39.720;2.910;2023-03-03T11:39:52;13.82;;;8.68;;
55728;SDS011;41633;39.720;2.910;2023-03-03T11:42:24;13.27;;;8.23;;
55728;SDS011;41633;39.720;2.910;2023-03-03T11:44:55;15.07;;;7.95;;
55728;SDS011;41633;39.720;2.910;2023-03-03T11:50:04;11.75;;;7.72;;
55728;SDS011;41633;39.720;2.910;2023-03-03T11:52:45;12.18;;;8.15;;
55728;SDS011;41633;39.720;2.910;2023-03-03T11:55:14;12.48;;;7.53;;
55728;SDS011;41633;39.720;2.910;2023-03-03T11:57:44;13.35;;;7.30;;
55728;SDS011;41633;39.720;2.910;2023-03-03T12:00:36;13.73;;;8.07;;
55728;SDS011;41633;39.720;2.910;2023-03-03T12:03:15;11.52;;;7.60;;
55728;SDS011;41633;39.720;2.910;2023-03-03T12:10:50;10.20;;;6.22;;
55728;SDS011;41633;39.720;2.910;2023-03-03T12:15:53;13.20;;;8.00;;
55728;SDS011;41633;39.720;2.910;2023-03-03T12:18:40;17.75;;;8.50;;
55728;SDS011;41633;39.720;2.910;2023-03-03T12:23:59;13.38;;;9.25;;
55728;SDS011;41633;39.720;2.910;2023-03-03T12:29:10;16.98;;;10.90;;
55728;SDS011;41633;39.720;2.910;2023-03-03T12:31:40;15.93;;;11.35;;
55728;SDS011;41633;39.720;2.910;2023-03-03T12:42:03;18.05;;;11.65;;
55728;SDS011;41633;39.720;2.910;2023-03-03T12:44:37;19.00;;;11.75;;
55728;SDS011;41633;39.720;2.910;2023-03-03T12:47:14;19.20;;;11.45;;
55728;SDS011;41633;39.720;2.910;2023-03-03T12:53:08;18.60;;;11.55;;
55728;SDS011;41633;39.720;2.910;2023-03-03T12:55:20;19.13;;;12.30;;
55728;SDS011;41633;39.720;2.910;2023-03-03T12:57:55;18.52;;;10.35;;
55728;SDS011;41633;39.720;2.910;2023-03-03T13:00:48;17.67;;;10.85;;
55728;SDS011;41633;39.720;2.910;2023-03-03T13:10:39;16.42;;;9.20;;
55728;SDS011;41633;39.720;2.910;2023-03-03T13:13:15;14.43;;;9.98;;
55728;SDS011;41633;39.720;2.910;2023-03-03T13:15:57;14.20;;;9.07;;
55728;SDS011;41633;39.720;2.910;2023-03-03T13:21:03;15.38;;;10.07;;
55728;SDS011;41633;39.720;2.910;2023-03-03T13:25:59;13.65;;;9.25;;
55728;SDS011;41633;39.720;2.910;2023-03-03T13:31:14;14.80;;;9.13;;
55728;SDS011;41633;39.720;2.910;2023-03-03T13:33:43;13.48;;;8.38;;
55728;SDS011;41633;39.720;2.910;2023-03-03T13:36:13;14.52;;;9.48;;
55728;SDS011;41633;39.720;2.910;2023-03-03T13:41:21;14.38;;;8.85;;
55728;SDS011;41633;39.720;2.910;2023-03-03T13:44:03;16.05;;;9.50;;
55728;SDS011;41633;39.720;2.910;2023-03-03T13:46:47;16.23;;;9.40;;
55728;SDS011;41633;39.720;2.910;2023-03-03T13:52:00;12.68;;;8.73;;
55728;SDS011;41633;39.720;2.910;2023-03-03T13:54:35;15.00;;;9.55;;
55728;SDS011;41633;39.720;2.910;2023-03-03T14:02:23;13.70;;;8.35;;
55728;SDS011;41633;39.720;2.910;2023-03-03T14:05:03;13.60;;;8.83;;
55728;SDS011;41633;39.720;2.910;2023-03-03T14:07:41;15.23;;;9.52;;
55728;SDS011;41633;39.720;2.910;2023-03-03T14:10:14;14.00;;;8.98;;
55728;SDS011;41633;39.720;2.910;2023-03-03T14:15:25;14.90;;;8.68;;
55728;SDS011;41633;39.720;2.910;2023-03-03T14:23:00;13.45;;;8.50;;
55728;SDS011;41633;39.720;2.910;2023-03-03T14:25:30;13.52;;;8.45;;
55728;SDS011;41633;39.720;2.910;2023-03-03T14:28:13;13.27;;;8.93;;
55728;SDS011;41633;39.720;2.910;2023-03-03T14:30:41;13.60;;;8.95;;
55728;SDS011;41633;39.720;2.910;2023-03-03T14:38:11;14.38;;;7.30;;
55728;SDS011;41633;39.720;2.910;2023-03-03T14:40:38;12.45;;;7.35;;
55728;SDS011;41633;39.720;2.910;2023-03-03T14:43:26;12.57;;;7.70;;
55728;SDS011;41633;39.720;2.910;2023-03-03T14:46:13;12.40;;;7.35;;
55728;SDS011;41633;39.720;2.910;2023-03-03T14:48:51;12.20;;;6.93;;
55728;SDS011;41633;39.720;2.910;2023-03-03T14:51:22;11.35;;;6.95;;
55728;SDS011;41633;39.720;2.910;2023-03-03T14:53:48;10.98;;;7.13;;
55728;SDS011;41633;39.720;2.910;2023-03-03T14:56:25;11.40;;;6.68;;
55728;SDS011;41633;39.720;2.910;2023-03-03T14:58:54;12.27;;;7.68;;
55728;SDS011;41633;39.720;2.910;2023-03-03T15:01:34;13.13;;;8.38;;
55728;SDS011;41633;39.720;2.910;2023-03-03T15:04:02;10.70;;;6.63;;
55728;SDS011;41633;39.720;2.910;2023-03-03T15:06:32;10.43;;;5.95;;
55728;SDS011;41633;39.720;2.910;2023-03-03T15:11:44;9.75;;;6.15;;
55728;SDS011;41633;39.720;2.910;2023-03-03T15:14:14;10.65;;;6.03;;
55728;SDS011;41633;39.720;2.910;2023-03-03T15:16:41;11.52;;;7.22;;
55728;SDS011;41633;39.720;2.910;2023-03-03T15:19:23;12.43;;;8.02;;
55728;SDS011;41633;39.720;2.910;2023-03-03T15:21:58;11.93;;;7.93;;
55728;SDS011;41633;39.720;2.910;2023-03-03T15:24:33;13.27;;;9.05;;
55728;SDS011;41633;39.720;2.910;2023-03-03T15:27:03;12.57;;;8.75;;
55728;SDS011;41633;39.720;2.910;2023-03-03T15:42:03;11.27;;;7.15;;
55728;SDS011;41633;39.720;2.910;2023-03-03T15:44:42;14.50;;;6.97;;
55728;SDS011;41633;39.720;2.910;2023-03-03T15:49:48;11.57;;;6.63;;
55728;SDS011;41633;39.720;2.910;2023-03-03T15:52:32;10.07;;;5.60;;
55728;SDS011;41633;39.720;2.910;2023-03-03T16:00:30;11.38;;;6.15;;
55728;SDS011;41633;39.720;2.910;2023-03-03T16:03:10;12.48;;;7.63;;
55728;SDS011;41633;39.720;2.910;2023-03-03T16:08:10;11.98;;;6.90;;
55728;SDS011;41633;39.720;2.910;2023-03-03T16:13:26;13.20;;;8.85;;
55728;SDS011;41633;39.720;2.910;2023-03-03T16:23:53;19.85;;;10.68;;
55728;SDS011;41633;39.720;2.910;2023-03-03T16:39:28;15.70;;;8.98;;
55728;SDS011;41633;39.720;2.910;2023-03-03T16:42:01;15.63;;;10.27;;
55728;SDS011;41633;39.720;2.910;2023-03-03T16:47:25;17.02;;;10.40;;
55728;SDS011;41633;39.720;2.910;2023-03-03T16:52:28;16.23;;;10.40;;
55728;SDS011;41633;39.720;2.910;2023-03-03T16:57:52;16.30;;;9.95;;
55728;SDS011;41633;39.720;2.910;2023-03-03T17:00:22;18.23;;;10.80;;
55728;SDS011;41633;39.720;2.910;2023-03-03T17:08:10;17.60;;;10.10;;
55728;SDS011;41633;39.720;2.910;2023-03-03T17:10:41;15.77;;;9.70;;
55728;SDS011;41633;39.720;2.910;2023-03-03T17:30:47;14.35;;;9.25;;
55728;SDS011;41633;39.720;2.910;2023-03-03T17:35:20;16.70;;;9.90;;
55728;SDS011;41633;39.720;2.910;2023-03-03T17:40:36;13.45;;;8.80;;
55728;SDS011;41633;39.720;2.910;2023-03-03T17:43:05;14.48;;;9.45;;
55728;SDS011;41633;39.720;2.910;2023-03-03T17:45:37;17.88;;;11.27;;
55728;SDS011;41633;39.720;2.910;2023-03-03T17:48:08;21.17;;;12.60;;
55728;SDS011;41633;39.720;2.910;2023-03-03T18:09:23;26.85;;;19.27;;
55728;SDS011;41633;39.720;2.910;2023-03-03T18:12:30;31.15;;;21.10;;
55728;SDS011;41633;39.720;2.910;2023-03-03T18:28:19;30.58;;;22.00;;
55728;SDS011;41633;39.720;2.910;2023-03-03T18:33:30;31.77;;;23.73;;
55728;SDS011;41633;39.720;2.910;2023-03-03T18:36:13;31.38;;;23.08;;
55728;SDS011;41633;39.720;2.910;2023-03-03T18:38:40;33.05;;;20.10;;
55728;SDS011;41633;39.720;2.910;2023-03-03T18:41:17;30.50;;;23.65;;
55728;SDS011;41633;39.720;2.910;2023-03-03T18:43:48;35.40;;;27.55;;
55728;SDS011;41633;39.720;2.910;2023-03-03T18:48:49;35.00;;;24.08;;
55728;SDS011;41633;39.720;2.910;2023-03-03T18:52:12;32.30;;;23.08;;
55728;SDS011;41633;39.720;2.910;2023-03-03T18:59:30;30.52;;;22.00;;
55728;SDS011;41633;39.720;2.910;2023-03-03T19:02:20;30.02;;;22.08;;
55728;SDS011;41633;39.720;2.910;2023-03-03T19:04:50;31.43;;;22.53;;
55728;SDS011;41633;39.720;2.910;2023-03-03T19:07:41;33.92;;;22.13;;
55728;SDS011;41633;39.720;2.910;2023-03-03T19:18:04;43.75;;;30.65;;
55728;SDS011;41633;39.720;2.910;2023-03-03T19:28:43;42.38;;;29.02;;
55728;SDS011;41633;39.720;2.910;2023-03-03T19:31:14;56.95;;;35.80;;
55728;SDS011;41633;39.720;2.910;2023-03-03T19:38:54;55.42;;;37.13;;
55728;SDS011;41633;39.720;2.910;2023-03-03T19:51:30;35.65;;;27.88;;
55728;SDS011;41633;39.720;2.910;2023-03-03T19:56:43;30.67;;;22.23;;
55728;SDS011;41633;39.720;2.910;2023-03-03T20:14:41;31.00;;;22.98;;
55728;SDS011;41633;39.720;2.910;2023-03-03T20:17:20;31.83;;;24.02;;
55728;SDS011;41633;39.720;2.910;2023-03-03T20:22:26;43.55;;;29.98;;
55728;SDS011;41633;39.720;2.910;2023-03-03T20:25:20;43.75;;;31.35;;
55728;SDS011;41633;39.720;2.910;2023-03-03T20:35:42;41.38;;;28.25;;
55728;SDS011;41633;39.720;2.910;2023-03-03T20:53:15;41.67;;;33.17;;
55728;SDS011;41633;39.720;2.910;2023-03-03T20:58:20;42.67;;;33.55;;
55728;SDS011;41633;39.720;2.910;2023-03-03T21:00:54;44.72;;;32.90;;
55728;SDS011;41633;39.720;2.910;2023-03-03T21:06:09;44.50;;;34.33;;
55728;SDS011;41633;39.720;2.910;2023-03-03T21:08:40;40.97;;;32.65;;
55728;SDS011;41633;39.720;2.910;2023-03-03T21:11:06;36.22;;;27.88;;
55728;SDS011;41633;39.720;2.910;2023-03-03T21:13:37;29.92;;;23.70;;
55728;SDS011;41633;39.720;2.910;2023-03-03T21:16:15;29.25;;;22.58;;
55728;SDS011;41633;39.720;2.910;2023-03-03T21:18:42;28.58;;;20.92;;
55728;SDS011;41633;39.720;2.910;2023-03-03T21:21:12;27.27;;;19.80;;
55728;SDS011;41633;39.720;2.910;2023-03-03T21:23:41;28.25;;;21.25;;
55728;SDS011;41633;39.720;2.910;2023-03-03T21:26:07;34.05;;;24.60;;